createdAt,value
2023-03-11T00:02:22.540Z,0.20
2023-03-11T00:04:49.210Z,0.20
2023-03-11T00:07:15.961Z,0.17
2023-03-11T00:09:42.641Z,0.90
2023-03-11T00:12:09.331Z,0.30
2023-03-11T00:14:36.055Z,0.45
2023-03-11T00:17:02.719Z,0.20
2023-03-11T00:19:29.342Z,0.38
2023-03-11T00:21:56.097Z,0.20
2023-03-11T00:24:22.748Z,0.28
2023-03-11T00:26:49.514Z,0.10
2023-03-11T00:29:16.180Z,0.10
2023-03-11T00:31:42.834Z,0.20
2023-03-11T00:34:09.519Z,0.20
2023-03-11T00:36:36.279Z,0.20
2023-03-11T00:39:07.542Z,0.20
2023-03-11T00:41:34.866Z,0.30
2023-03-11T00:44:01.666Z,0.30
2023-03-11T00:46:31.193Z,0.10
2023-03-11T00:48:58.036Z,0.20
2023-03-11T00:51:24.803Z,0.20
2023-03-11T00:53:51.586Z,0.15
2023-03-11T00:56:18.662Z,0.17
2023-03-11T00:58:45.978Z,0.20
2023-03-11T01:01:21.766Z,0.20
2023-03-11T01:03:48.748Z,0.20
2023-03-11T01:06:16.746Z,0.30
2023-03-11T01:08:43.448Z,0.10
2023-03-11T01:11:10.183Z,0.10
2023-03-11T01:13:37.016Z,0.10
2023-03-11T01:16:03.790Z,0.10
2023-03-11T01:18:30.811Z,0.10
2023-03-11T01:20:57.482Z,0.10
2023-03-11T01:23:24.124Z,0.20
2023-03-11T01:25:50.796Z,0.10
2023-03-11T01:28:17.604Z,0.10
2023-03-11T01:30:44.928Z,0.20
2023-03-11T01:33:18.046Z,0.10
2023-03-11T01:35:46.086Z,0.20
2023-03-11T01:38:13.121Z,0.28
2023-03-11T01:40:48.967Z,0.20
2023-03-11T01:43:41.906Z,0.10
2023-03-11T01:47:00.087Z,0.20
2023-03-11T01:49:33.026Z,0.20
2023-03-11T01:52:08.005Z,0.08
2023-03-11T01:54:41.610Z,0.10
2023-03-11T01:57:13.453Z,0.20
2023-03-11T01:59:47.715Z,0.20
2023-03-11T02:02:35.906Z,0.20
2023-03-11T02:05:04.107Z,0.43
2023-03-11T02:07:31.575Z,0.30
2023-03-11T02:09:59.557Z,0.20
2023-03-11T02:12:31.128Z,0.20
2023-03-11T02:14:58.129Z,0.10
2023-03-11T02:17:25.060Z,0.30
2023-03-11T02:20:06.308Z,0.50
2023-03-11T02:22:33.857Z,0.28
2023-03-11T02:25:07.308Z,0.20
2023-03-11T02:27:37.247Z,0.10
2023-03-11T02:30:07.059Z,0.10
2023-03-11T02:32:37.690Z,0.10
2023-03-11T02:35:05.700Z,0.20
2023-03-11T02:37:32.608Z,0.10
2023-03-11T02:40:27.014Z,0.20
2023-03-11T02:43:05.939Z,0.10
2023-03-11T02:45:35.923Z,0.13
2023-03-11T02:48:03.247Z,0.10
2023-03-11T02:50:32.135Z,0.10
2023-03-11T02:52:58.832Z,0.20
2023-03-11T02:55:25.579Z,0.10
2023-03-11T02:57:52.174Z,0.30
2023-03-11T03:00:19.192Z,0.10
2023-03-11T03:02:53.411Z,0.13
2023-03-11T03:05:21.912Z,0.10
2023-03-11T03:07:51.340Z,0.13
2023-03-11T03:10:20.384Z,0.10
2023-03-11T03:12:47.722Z,0.15
2023-03-11T03:15:16.017Z,0.20
2023-03-11T03:17:44.491Z,0.20
2023-03-11T03:20:13.295Z,0.10
2023-03-11T03:22:44.571Z,0.10
2023-03-11T03:25:14.451Z,0.13
2023-03-11T03:27:41.067Z,0.08
2023-03-11T03:30:08.754Z,0.10
2023-03-11T03:32:36.543Z,0.10
2023-03-11T03:35:05.230Z,0.20
2023-03-11T03:37:55.321Z,0.10
2023-03-11T03:40:23.087Z,0.52
2023-03-11T03:42:51.348Z,0.47
2023-03-11T03:45:19.113Z,0.13
2023-03-11T03:47:46.586Z,0.10
2023-03-11T03:50:13.533Z,0.10
2023-03-11T03:52:44.044Z,0.03
2023-03-11T03:55:11.248Z,0.10
2023-03-11T03:57:38.729Z,0.13
2023-03-11T04:00:10.309Z,0.10
2023-03-11T04:02:45.537Z,0.10
2023-03-11T04:05:22.022Z,0.10
2023-03-11T04:07:48.769Z,0.20
2023-03-11T04:10:15.719Z,0.10
2023-03-11T04:12:43.408Z,0.20
2023-03-11T04:15:10.357Z,0.20
2023-03-11T04:17:38.374Z,0.10
2023-03-11T04:20:10.301Z,0.20
2023-03-11T04:22:37.138Z,0.10
2023-03-11T04:25:05.400Z,0.10
2023-03-11T04:27:33.003Z,0.10
2023-03-11T04:30:00.600Z,0.10
2023-03-11T04:32:27.559Z,0.10
2023-03-11T04:34:54.283Z,0.10
2023-03-11T04:37:20.979Z,0.10
2023-03-11T04:39:47.957Z,0.10
2023-03-11T04:42:15.840Z,0.00
2023-03-11T04:44:43.728Z,0.00
2023-03-11T04:47:10.426Z,0.00
2023-03-11T04:49:37.980Z,0.10
2023-03-11T04:52:04.996Z,0.10
2023-03-11T04:54:31.680Z,0.10
2023-03-11T04:56:58.432Z,0.10
2023-03-11T04:59:25.671Z,0.10
2023-03-11T05:01:52.911Z,0.10
2023-03-11T05:04:19.686Z,0.10
2023-03-11T05:06:46.645Z,0.13
2023-03-11T05:09:13.986Z,0.20
2023-03-11T05:11:41.090Z,0.20
2023-03-11T05:14:08.521Z,0.20
2023-03-11T05:16:35.557Z,0.10
2023-03-11T05:19:25.252Z,0.20
2023-03-11T05:21:52.332Z,0.17
2023-03-11T05:24:19.886Z,0.10
2023-03-11T05:26:48.540Z,0.20
2023-03-11T05:29:15.957Z,0.40
2023-03-11T05:31:43.484Z,0.17
2023-03-11T05:34:10.566Z,0.20
2023-03-11T05:36:37.674Z,0.30
2023-03-11T05:39:05.190Z,0.20
2023-03-11T05:41:34.358Z,0.10
2023-03-11T05:44:01.701Z,0.30
2023-03-11T05:46:28.446Z,0.30
2023-03-11T05:48:55.900Z,0.40
2023-03-11T05:51:22.904Z,0.32
2023-03-11T05:53:49.666Z,0.30
2023-03-11T05:56:23.712Z,0.50
2023-03-11T05:58:53.119Z,0.30
2023-03-11T06:01:20.836Z,0.30
2023-03-11T06:03:48.104Z,0.70
2023-03-11T06:06:15.113Z,0.55
2023-03-11T06:08:46.028Z,0.80
2023-03-11T06:11:13.092Z,0.70
2023-03-11T06:13:40.074Z,0.80
2023-03-11T06:16:09.726Z,0.50
2023-03-11T06:18:36.718Z,0.20
2023-03-11T06:21:05.527Z,0.08
2023-03-11T06:23:33.085Z,0.10
2023-03-11T06:26:04.071Z,0.10
2023-03-11T06:28:35.666Z,0.10
2023-03-11T06:31:11.059Z,0.10
2023-03-11T06:36:06.640Z,0.10
2023-03-11T06:38:37.301Z,0.10
2023-03-11T06:41:06.341Z,0.10
2023-03-11T06:43:35.725Z,0.25
2023-03-11T06:46:09.836Z,0.10
2023-03-11T06:48:36.874Z,0.00
2023-03-11T06:51:04.111Z,0.10
2023-03-11T06:53:32.614Z,0.10
2023-03-11T06:56:05.677Z,0.10
2023-03-11T06:58:38.776Z,0.25
2023-03-11T07:01:13.316Z,0.10
2023-03-11T07:03:40.429Z,0.10
2023-03-11T07:06:11.421Z,0.20
2023-03-11T07:08:38.310Z,0.20
2023-03-11T07:11:27.301Z,0.20
2023-03-11T07:14:00.482Z,0.00
2023-03-11T07:16:31.106Z,0.10
2023-03-11T07:19:05.062Z,0.22
2023-03-11T07:21:32.730Z,0.25
2023-03-11T07:24:01.774Z,0.10
2023-03-11T07:26:29.612Z,0.10
2023-03-11T07:28:57.479Z,0.10
2023-03-11T07:31:30.329Z,0.13
2023-03-11T07:33:58.939Z,0.10
2023-03-11T07:36:26.424Z,0.20
2023-03-11T07:39:04.448Z,0.20
2023-03-11T07:41:33.536Z,0.10
2023-03-11T07:44:01.601Z,0.20
2023-03-11T07:46:29.915Z,0.13
2023-03-11T07:48:56.651Z,0.10
2023-03-11T07:51:25.975Z,0.20
2023-03-11T07:53:54.419Z,0.10
2023-03-11T07:56:23.682Z,0.10
2023-03-11T07:58:51.394Z,0.10
2023-03-11T08:01:21.348Z,0.17
2023-03-11T08:03:51.055Z,0.20
2023-03-11T08:06:20.530Z,0.20
2023-03-11T08:08:48.480Z,0.10
2023-03-11T08:11:16.602Z,0.10
2023-03-11T08:13:44.908Z,0.10
2023-03-11T08:16:15.434Z,0.10
2023-03-11T08:18:43.050Z,0.10
2023-03-11T08:21:12.816Z,0.10
2023-03-11T08:23:39.671Z,0.20
2023-03-11T08:26:08.678Z,0.20
2023-03-11T08:28:35.561Z,0.10
2023-03-11T08:31:02.871Z,0.10
2023-03-11T08:33:29.756Z,0.10
2023-03-11T08:35:56.776Z,0.10
2023-03-11T08:38:23.691Z,0.10
2023-03-11T08:40:50.326Z,0.10
2023-03-11T08:43:17.058Z,0.10
2023-03-11T08:45:44.118Z,0.10
2023-03-11T08:48:12.493Z,0.10
2023-03-11T08:50:53.999Z,0.10
2023-03-11T08:53:22.868Z,0.20
2023-03-11T08:55:51.294Z,0.10
2023-03-11T08:58:18.802Z,0.10
2023-03-11T09:00:46.234Z,0.10
2023-03-11T09:03:13.690Z,0.10
2023-03-11T09:05:40.919Z,0.20
2023-03-11T09:08:07.986Z,0.20
2023-03-11T09:10:34.756Z,0.22
2023-03-11T09:13:01.841Z,0.20
2023-03-11T09:15:28.567Z,0.20
2023-03-11T09:17:55.839Z,0.10
2023-03-11T09:20:22.762Z,0.20
2023-03-11T09:22:49.499Z,0.20
2023-03-11T09:25:16.480Z,0.20
2023-03-11T09:27:43.293Z,0.13
2023-03-11T09:30:10.676Z,0.20
2023-03-11T09:32:37.572Z,0.13
2023-03-11T09:35:04.958Z,0.17
2023-03-11T09:37:31.963Z,0.17
2023-03-11T09:39:58.624Z,0.20
2023-03-11T09:42:34.411Z,0.10
2023-03-11T09:45:03.883Z,0.05
2023-03-11T09:47:59.890Z,0.20
2023-03-11T09:50:41.285Z,0.10
2023-03-11T09:53:49.811Z,0.20
2023-03-11T09:56:20.161Z,0.40
2023-03-11T09:58:56.321Z,0.28
2023-03-11T10:01:40.538Z,0.10
2023-03-11T10:04:16.196Z,0.10
2023-03-11T10:06:46.024Z,0.10
2023-03-11T10:09:12.850Z,0.10
2023-03-11T10:11:53.327Z,0.15
2023-03-11T10:14:34.202Z,0.10
2023-03-11T10:17:05.923Z,0.20
2023-03-11T10:20:04.980Z,0.10
2023-03-11T10:22:41.610Z,0.30
2023-03-11T10:25:14.175Z,0.10
2023-03-11T10:27:48.079Z,0.10
2023-03-11T10:30:29.687Z,0.10
2023-03-11T10:33:22.533Z,0.13
2023-03-11T10:35:54.471Z,0.10
2023-03-11T10:38:33.354Z,0.15
2023-03-11T10:41:04.579Z,0.10
2023-03-11T10:43:39.981Z,0.10
2023-03-11T10:46:18.830Z,0.20
2023-03-11T10:48:45.515Z,0.10
2023-03-11T10:51:22.694Z,0.10
2023-03-11T10:53:54.128Z,0.20
2023-03-11T10:56:28.385Z,0.28
2023-03-11T10:58:56.156Z,0.40
2023-03-11T11:01:23.382Z,0.20
2023-03-11T11:03:55.969Z,0.50
2023-03-11T11:06:29.808Z,0.10
2023-03-11T11:09:06.529Z,0.10
2023-03-11T11:11:35.702Z,0.10
2023-03-11T11:14:02.386Z,0.10
2023-03-11T11:16:29.610Z,0.10
2023-03-11T11:19:08.372Z,0.20
2023-03-11T11:21:43.563Z,0.20
2023-03-11T11:24:26.197Z,0.20
2023-03-11T11:27:11.581Z,0.30
2023-03-11T11:29:38.490Z,0.15
2023-03-11T11:32:31.184Z,0.28
2023-03-11T11:35:12.053Z,0.22
2023-03-11T11:37:46.353Z,0.20
2023-03-11T11:40:16.473Z,0.28
2023-03-11T11:42:51.502Z,0.20
2023-03-11T11:45:36.903Z,0.20
2023-03-11T11:48:27.079Z,0.40
2023-03-11T11:50:59.562Z,0.10
2023-03-11T11:53:39.863Z,0.20
2023-03-11T11:56:06.672Z,0.20
2023-03-11T11:58:34.839Z,0.20
2023-03-11T12:01:14.244Z,0.20
2023-03-11T12:04:02.382Z,0.10
2023-03-11T12:06:43.983Z,0.40
2023-03-11T12:09:35.162Z,0.20
2023-03-11T12:12:08.130Z,0.20
2023-03-11T12:14:43.785Z,0.20
2023-03-11T12:17:13.428Z,0.10
2023-03-11T12:19:47.968Z,0.10
2023-03-11T12:22:17.500Z,0.10
2023-03-11T12:25:00.885Z,0.20
2023-03-11T12:27:40.178Z,0.20
2023-03-11T12:30:32.734Z,0.10
2023-03-11T12:33:20.648Z,0.15
2023-03-11T12:35:52.396Z,0.20
2023-03-11T12:38:23.621Z,0.20
2023-03-11T12:40:58.817Z,0.20
2023-03-11T12:43:33.531Z,0.10
2023-03-11T12:46:02.351Z,0.20
2023-03-11T12:48:49.784Z,0.10
2023-03-11T12:51:33.652Z,0.20
2023-03-11T12:54:49.356Z,0.20
2023-03-11T12:57:16.079Z,0.10
2023-03-11T12:59:57.665Z,0.20
2023-03-11T13:02:43.885Z,0.10
2023-03-11T13:05:41.394Z,0.25
2023-03-11T13:08:27.144Z,0.10
2023-03-11T13:10:55.857Z,0.10
2023-03-11T13:13:25.265Z,0.30
2023-03-11T13:15:52.898Z,0.10
2023-03-11T13:18:24.411Z,0.15
2023-03-11T13:21:01.691Z,0.10
2023-03-11T13:23:36.411Z,0.17
2023-03-11T13:26:20.685Z,0.20
2023-03-11T13:29:18.350Z,0.10
2023-03-11T13:32:25.115Z,0.10
2023-03-11T13:37:49.046Z,0.20
2023-03-11T13:40:26.318Z,0.32
2023-03-11T13:42:57.663Z,0.20
2023-03-11T13:45:27.696Z,0.20
2023-03-11T13:48:00.729Z,0.10
2023-03-11T13:50:35.526Z,0.20
2023-03-11T13:53:09.644Z,0.20
2023-03-11T13:55:45.097Z,0.20
2023-03-11T14:00:56.005Z,0.20
2023-03-11T14:03:25.507Z,0.10
2023-03-11T14:06:05.049Z,0.03
2023-03-11T14:08:37.519Z,0.20
2023-03-11T14:11:16.189Z,0.20
2023-03-11T14:13:50.219Z,0.47
2023-03-11T14:16:24.697Z,0.20
2023-03-11T14:19:15.411Z,0.17
2023-03-11T14:21:43.589Z,0.10
2023-03-11T14:24:24.024Z,0.25
2023-03-11T14:26:55.744Z,0.10
2023-03-11T14:29:43.324Z,0.10
2023-03-11T14:32:17.887Z,0.25
2023-03-11T14:34:45.994Z,0.20
2023-03-11T14:37:31.236Z,0.10
2023-03-11T14:39:58.196Z,0.20
2023-03-11T14:42:43.708Z,0.20
2023-03-11T14:45:17.071Z,0.20
2023-03-11T14:47:50.692Z,0.30
2023-03-11T14:50:20.900Z,0.40
2023-03-11T14:53:09.361Z,0.20
2023-03-11T14:55:51.070Z,0.30
2023-03-11T14:58:29.269Z,0.17
2023-03-11T15:01:22.682Z,0.20
2023-03-11T15:04:06.839Z,0.20
2023-03-11T15:06:35.838Z,0.20
2023-03-11T15:09:13.370Z,0.20
2023-03-11T15:11:59.182Z,0.10
2023-03-11T15:14:31.934Z,0.13
2023-03-11T15:17:34.888Z,0.10
2023-03-11T15:20:29.363Z,0.10
2023-03-11T15:23:02.404Z,0.17
2023-03-11T15:25:34.645Z,0.20
2023-03-11T15:28:25.234Z,0.28
2023-03-11T15:31:31.069Z,0.30
2023-03-11T15:34:16.890Z,0.30
2023-03-11T15:39:42.017Z,0.20
2023-03-11T15:42:08.817Z,0.10
2023-03-11T15:44:53.654Z,0.30
2023-03-11T15:47:22.994Z,0.20
2023-03-11T15:49:50.432Z,0.10
2023-03-11T15:52:19.224Z,0.17
2023-03-11T15:54:55.171Z,0.40
2023-03-11T15:57:27.308Z,0.30
2023-03-11T15:59:56.265Z,0.22
2023-03-11T16:02:26.178Z,0.30
2023-03-11T16:04:53.324Z,0.20
2023-03-11T16:07:36.547Z,0.60
2023-03-11T16:10:05.892Z,0.30
2023-03-11T16:12:32.663Z,0.30
2023-03-11T16:14:59.333Z,0.30
2023-03-11T16:17:26.609Z,0.20
2023-03-11T16:19:55.318Z,0.20
2023-03-11T16:22:31.276Z,0.20
2023-03-11T16:24:59.783Z,0.30
2023-03-11T16:27:27.493Z,0.20
2023-03-11T16:29:54.115Z,0.20
2023-03-11T16:32:20.933Z,0.40
2023-03-11T16:34:47.618Z,0.20
2023-03-11T16:37:16.726Z,0.17
2023-03-11T16:39:43.457Z,0.20
2023-03-11T16:42:10.125Z,0.50
2023-03-11T16:44:36.848Z,0.30
2023-03-11T16:47:03.550Z,0.20
2023-03-11T16:49:30.417Z,0.25
2023-03-11T16:51:57.017Z,0.60
2023-03-11T16:54:23.724Z,0.35
2023-03-11T16:56:50.307Z,0.35
2023-03-11T16:59:17.001Z,0.40
2023-03-11T17:01:43.678Z,0.10
2023-03-11T17:04:10.463Z,0.20
2023-03-11T17:06:37.114Z,0.20
2023-03-11T17:09:06.684Z,0.10
2023-03-11T17:11:34.433Z,0.20
2023-03-11T17:14:15.551Z,0.30
2023-03-11T17:16:44.638Z,0.30
2023-03-11T17:19:11.513Z,0.40
2023-03-11T17:21:38.138Z,0.52
2023-03-11T17:24:05.403Z,0.60
2023-03-11T17:26:32.201Z,0.50
2023-03-11T17:28:59.331Z,0.38
2023-03-11T17:31:26.131Z,0.40
2023-03-11T17:33:52.854Z,0.40
2023-03-11T17:36:20.341Z,0.80
2023-03-11T17:38:48.181Z,0.30
2023-03-11T17:41:17.265Z,1.10
2023-03-11T17:43:44.943Z,1.77
2023-03-11T17:46:14.517Z,1.27
2023-03-11T17:48:42.445Z,1.25
2023-03-11T17:51:11.714Z,0.73
2023-03-11T17:53:39.935Z,2.90
2023-03-11T17:56:08.008Z,0.30
2023-03-11T17:58:35.652Z,0.30
2023-03-11T18:01:07.689Z,0.40
2023-03-11T18:03:34.557Z,0.75
2023-03-11T18:06:03.310Z,0.75
2023-03-11T18:08:32.101Z,0.30
2023-03-11T18:11:01.971Z,0.60
2023-03-11T18:13:29.780Z,0.40
2023-03-11T18:16:01.662Z,0.25
2023-03-11T18:18:29.916Z,0.40
2023-03-11T18:21:04.773Z,0.25
2023-03-11T18:23:34.781Z,0.45
2023-03-11T18:26:04.997Z,0.85
2023-03-11T18:28:32.036Z,0.68
2023-03-11T18:31:16.052Z,0.50
2023-03-11T18:33:47.699Z,0.50
2023-03-11T18:36:20.903Z,0.40
2023-03-11T18:38:48.878Z,0.40
2023-03-11T18:41:16.069Z,0.40
2023-03-11T18:43:42.952Z,0.20
2023-03-11T18:46:13.305Z,0.88
2023-03-11T18:48:40.274Z,0.70
2023-03-11T18:51:08.984Z,1.10
2023-03-11T18:53:36.171Z,1.10
2023-03-11T18:56:06.062Z,1.30
2023-03-11T18:58:33.548Z,1.17
2023-03-11T19:01:06.292Z,0.73
2023-03-11T19:03:33.402Z,0.98
2023-03-11T19:06:00.372Z,1.10
2023-03-11T19:08:27.397Z,2.05
2023-03-11T19:10:54.161Z,1.33
2023-03-11T19:13:20.919Z,0.63
2023-03-11T19:15:47.724Z,0.90
2023-03-11T19:18:14.414Z,1.20
2023-03-11T19:20:41.043Z,1.48
2023-03-11T19:23:07.864Z,1.90
2023-03-11T19:25:35.078Z,1.10
2023-03-11T19:28:02.847Z,1.20
2023-03-11T19:30:29.876Z,0.90
2023-03-11T19:32:56.712Z,1.02
2023-03-11T19:35:23.836Z,1.00
2023-03-11T19:37:57.027Z,1.10
2023-03-11T19:40:26.084Z,0.70
2023-03-11T19:42:52.792Z,0.50
2023-03-11T19:45:19.549Z,0.70
2023-03-11T19:47:50.700Z,0.30
2023-03-11T19:50:18.306Z,0.70
2023-03-11T19:52:45.389Z,0.70
2023-03-11T19:55:12.493Z,0.85
2023-03-11T19:57:39.120Z,0.55
2023-03-11T20:00:06.740Z,0.50
2023-03-11T20:02:33.491Z,1.08
2023-03-11T20:05:00.412Z,0.70
2023-03-11T20:07:27.309Z,0.50
2023-03-11T20:09:54.078Z,0.30
2023-03-11T20:12:20.739Z,0.40
2023-03-11T20:14:47.481Z,0.40
2023-03-11T20:17:14.727Z,0.30
2023-03-11T20:19:41.615Z,1.17
2023-03-11T20:22:08.252Z,0.40
2023-03-11T20:24:35.037Z,0.22
2023-03-11T20:27:01.614Z,0.30
2023-03-11T20:29:28.559Z,0.40
2023-03-11T20:31:55.362Z,1.00
2023-03-11T20:34:22.292Z,0.50
2023-03-11T20:36:50.810Z,0.70
2023-03-11T20:39:17.741Z,0.77
2023-03-11T20:41:44.484Z,0.40
2023-03-11T20:44:13.682Z,0.40
2023-03-11T20:46:59.169Z,0.50
2023-03-11T20:49:25.974Z,0.30
2023-03-11T20:51:52.666Z,0.30
2023-03-11T20:54:19.839Z,1.77
2023-03-11T20:56:46.667Z,0.85
2023-03-11T20:59:16.368Z,1.38
2023-03-11T21:01:43.639Z,1.10
2023-03-11T21:04:10.549Z,1.25
2023-03-11T21:06:39.556Z,0.40
2023-03-11T21:09:11.040Z,0.20
2023-03-11T21:11:38.063Z,0.50
2023-03-11T21:14:06.111Z,0.50
2023-03-11T21:16:33.455Z,0.20
2023-03-11T21:19:05.213Z,0.28
2023-03-11T21:21:32.219Z,0.30
2023-03-11T21:23:58.976Z,0.30
2023-03-11T21:26:25.895Z,0.30
2023-03-11T21:28:52.604Z,0.40
2023-03-11T21:31:22.100Z,0.30
2023-03-11T21:33:52.201Z,0.40
2023-03-11T21:36:19.266Z,0.50
2023-03-11T21:38:47.460Z,0.22
2023-03-11T21:41:15.845Z,0.50
2023-03-11T21:43:43.558Z,0.70
2023-03-11T21:46:13.357Z,2.50
2023-03-11T21:48:40.421Z,4.15
2023-03-11T21:51:07.895Z,2.03
2023-03-11T21:53:35.618Z,2.30
2023-03-11T21:56:03.837Z,1.38
2023-03-11T21:58:31.432Z,0.95
2023-03-11T22:00:58.191Z,0.70
2023-03-11T22:03:25.116Z,0.68
2023-03-11T22:06:02.354Z,0.43
2023-03-11T22:08:29.164Z,0.50
2023-03-11T22:10:56.063Z,1.00
2023-03-11T22:13:23.631Z,0.60
2023-03-11T22:15:50.564Z,0.50
2023-03-11T22:18:17.642Z,0.75
2023-03-11T22:20:44.961Z,0.40
2023-03-11T22:23:11.803Z,0.55
2023-03-11T22:25:38.450Z,0.60
2023-03-11T22:28:05.471Z,0.45
2023-03-11T22:30:32.186Z,0.50
2023-03-11T22:32:59.062Z,0.40
2023-03-11T22:35:25.703Z,0.40
2023-03-11T22:37:52.429Z,0.65
2023-03-11T22:40:19.148Z,0.32
2023-03-11T22:42:45.801Z,0.47
2023-03-11T22:45:12.435Z,0.40
2023-03-11T22:47:39.047Z,0.60
2023-03-11T22:50:05.901Z,0.40
2023-03-11T22:52:32.546Z,0.60
2023-03-11T22:54:59.194Z,0.30
2023-03-11T22:57:25.865Z,0.35
2023-03-11T22:59:52.548Z,0.47
2023-03-11T23:02:19.280Z,0.40
2023-03-11T23:04:46.229Z,0.50
2023-03-11T23:07:13.037Z,0.63
2023-03-11T23:09:39.743Z,0.43
2023-03-11T23:12:07.127Z,0.40
2023-03-11T23:14:44.599Z,0.60
2023-03-11T23:17:12.627Z,0.40
2023-03-11T23:19:39.314Z,0.55
2023-03-11T23:22:07.014Z,0.35
2023-03-11T23:24:34.152Z,0.57
2023-03-11T23:27:04.626Z,0.30
2023-03-11T23:29:32.267Z,0.30
2023-03-11T23:31:59.190Z,0.20
2023-03-11T23:34:26.143Z,0.25
2023-03-11T23:36:52.744Z,0.60
2023-03-11T23:39:19.472Z,1.48
2023-03-11T23:41:46.043Z,0.30
2023-03-11T23:44:14.314Z,0.40
2023-03-11T23:46:40.949Z,0.40
2023-03-11T23:49:07.597Z,0.30
2023-03-11T23:51:34.265Z,0.30
2023-03-11T23:54:01.010Z,0.28
2023-03-11T23:56:28.007Z,0.30
2023-03-11T23:58:54.736Z,0.20
